Terminal Aerodrome Forecast
Issued by NWS

Home | Current Version | Previous Version | Text Only | Print | Product List | Glossary On
Versions: 1 2 3 4 5 6 7 8 9 10 11 12 13 14 15 16
000
FTUS43 KBIS 042328
TAFMOT
TAF
KMOT 042328Z 0500/0524 11007KT P6SM SCT250
     FM050600 12008KT P6SM SCT100 BKN250
     FM051300 15009KT P6SM VCSH FEW015 BKN110
     FM051600 18012KT P6SM VCTS SCT020 BKN050CB
      TEMPO 0516/0520 VRB15G25KT TSRA BKN050CB
     FM052000 25010KT P6SM SCT050 BKN100=

USA.gov is the U.S. government's official web portal to all federal, state and local government web resources and services.